Time;durP1;ratioP1;P1;durP2;ratioP2;P2;SDS_P1;SDS_P2;PMS_P1;PMS_P2;Temp;Humidity;BMP_temperature;BMP_pressure;BME280_temperature;BME280_humidity;BME280_pressure;Samples;Min_cycle;Max_cycle;Signal;HPM_P1;HPM_P2
2023/12/17 00:02:21;;;;;;;28.30;9.82;;;8.50;99.90;;;;;;5047379;28;20025;-62
2023/12/17 00:04:46;;;;;;;25.98;10.35;;;8.50;99.90;;;;;;5062059;28;20035;-62
2023/12/17 00:07:12;;;;;;;34.80;11.00;;;8.50;99.90;;;;;;5049562;28;20035;-62
2023/12/17 00:09:38;;;;;;;28.08;10.93;;;8.50;99.90;;;;;;5049277;28;20036;-63
2023/12/17 00:12:03;;;;;;;24.08;9.32;;;8.50;99.90;;;;;;5052642;28;20437;-62
2023/12/17 00:14:29;;;;;;;36.97;10.25;;;8.50;99.90;;;;;;5054294;28;20560;-62
2023/12/17 00:16:54;;;;;;;24.27;9.63;;;8.50;99.90;;;;;;5048504;28;20051;-64
2023/12/17 00:19:20;;;;;;;27.92;10.15;;;8.50;99.90;;;;;;5052814;28;20464;-60
2023/12/17 00:21:45;;;;;;;37.10;10.05;;;8.50;99.90;;;;;;5050822;28;20057;-63
2023/12/17 00:24:11;;;;;;;30.85;9.57;;;8.50;99.90;;;;;;5058446;28;20073;-64
2023/12/17 00:26:37;;;;;;;32.72;8.75;;;8.50;99.90;;;;;;5052850;28;20363;-64
2023/12/17 00:29:02;;;;;;;22.95;10.02;;;8.50;99.90;;;;;;5052913;28;20036;-63
2023/12/17 00:31:28;;;;;;;21.85;7.90;;;8.50;99.90;;;;;;5047083;28;20033;-64
2023/12/17 00:33:53;;;;;;;20.52;9.13;;;8.60;99.90;;;;;;5052433;28;20021;-63
2023/12/17 00:36:19;;;;;;;16.98;7.55;;;8.60;99.90;;;;;;5049777;28;20102;-63
2023/12/17 00:38:44;;;;;;;24.13;7.63;;;8.60;99.90;;;;;;5050638;28;20048;-64
2023/12/17 00:41:10;;;;;;;18.15;6.65;;;8.60;99.90;;;;;;5053151;28;20254;-63
2023/12/17 00:43:36;;;;;;;21.70;7.57;;;8.60;99.90;;;;;;5052626;28;20033;-63
2023/12/17 00:46:01;;;;;;;18.95;7.03;;;8.60;99.90;;;;;;5047448;28;20048;-62
2023/12/17 00:48:27;;;;;;;16.98;7.55;;;8.60;99.90;;;;;;5048712;28;20035;-63
2023/12/17 00:50:52;;;;;;;20.17;6.90;;;8.60;99.90;;;;;;5058973;28;20029;-62
2023/12/17 00:53:18;;;;;;;15.52;6.03;;;8.60;99.90;;;;;;5050614;28;20079;-63
2023/12/17 00:55:43;;;;;;;17.10;7.07;;;8.60;99.90;;;;;;5059178;28;20029;-62
2023/12/17 00:58:09;;;;;;;15.13;6.53;;;8.60;99.90;;;;;;5052807;28;20030;-63
2023/12/17 01:00:34;;;;;;;15.30;5.60;;;8.50;99.90;;;;;;5057105;28;20130;-62
2023/12/17 01:03:00;;;;;;;16.48;6.38;;;8.60;99.90;;;;;;5050032;28;20025;-62
2023/12/17 01:05:25;;;;;;;23.25;6.30;;;8.60;99.90;;;;;;5053416;28;20048;-63
2023/12/17 01:07:51;;;;;;;13.40;5.32;;;8.50;99.90;;;;;;5052064;28;20064;-62
2023/12/17 01:10:16;;;;;;;19.25;7.15;;;8.50;99.90;;;;;;5052114;28;20434;-64
2023/12/17 01:12:42;;;;;;;19.83;6.93;;;8.50;99.90;;;;;;5044776;28;20052;-65
2023/12/17 01:15:08;;;;;;;23.65;7.60;;;8.50;99.90;;;;;;5057906;28;20056;-65
2023/12/17 01:17:33;;;;;;;17.30;6.90;;;8.60;99.90;;;;;;5043463;28;20049;-63
2023/12/17 01:19:59;;;;;;;19.58;7.05;;;8.60;99.90;;;;;;5059187;28;20418;-63
2023/12/17 01:22:24;;;;;;;29.60;7.50;;;8.60;99.90;;;;;;5046377;28;20044;-61
2023/12/17 01:24:54;;;;;;;21.67;8.90;;;8.60;99.90;;;;;;5053826;28;20112;-63
2023/12/17 01:27:20;;;;;;;13.68;6.13;;;8.60;99.90;;;;;;5055010;28;20025;-62
2023/12/17 01:29:46;;;;;;;15.60;6.70;;;8.60;99.90;;;;;;5059886;28;20440;-63
2023/12/17 01:32:12;;;;;;;20.10;6.65;;;8.60;99.90;;;;;;5051279;28;20020;-63
2023/12/17 01:34:37;;;;;;;11.32;5.15;;;8.60;99.90;;;;;;5054464;28;20392;-63
2023/12/17 01:37:03;;;;;;;10.43;5.15;;;8.60;99.90;;;;;;5046129;28;20017;-63
2023/12/17 01:39:28;;;;;;;17.55;4.60;;;8.60;99.90;;;;;;5056742;28;20404;-63
2023/12/17 01:41:54;;;;;;;12.75;4.80;;;8.60;99.90;;;;;;5043226;28;20042;-62
2023/12/17 01:44:19;;;;;;;11.77;4.65;;;8.70;99.90;;;;;;5058958;28;20032;-63
2023/12/17 01:46:45;;;;;;;16.02;4.78;;;8.70;99.90;;;;;;5050452;28;20038;-63
2023/12/17 01:49:10;;;;;;;17.15;4.55;;;8.70;99.90;;;;;;5049066;28;20391;-64
2023/12/17 01:51:38;;;;;;;12.02;5.53;;;8.70;99.90;;;;;;5047974;28;20482;-63
2023/12/17 01:54:03;;;;;;;13.50;4.82;;;8.70;99.90;;;;;;5052266;28;20060;-62
2023/12/17 01:56:29;;;;;;;8.68;3.78;;;8.70;99.90;;;;;;5048859;28;20492;-62
2023/12/17 01:58:56;;;;;;;10.23;4.53;;;8.70;99.90;;;;;;5051599;28;20032;-63
2023/12/17 02:01:22;;;;;;;10.48;4.40;;;8.70;99.90;;;;;;5044552;28;20029;-63
2023/12/17 02:03:48;;;;;;;12.23;4.43;;;8.70;99.90;;;;;;5047404;28;20037;-63
2023/12/17 02:06:14;;;;;;;14.43;4.97;;;8.70;99.90;;;;;;5058152;28;20032;-62
2023/12/17 02:08:40;;;;;;;12.27;4.32;;;8.70;99.90;;;;;;5042691;28;20514;-62
2023/12/17 02:11:06;;;;;;;14.40;3.70;;;8.60;99.90;;;;;;5054620;28;20079;-63
2023/12/17 02:13:32;;;;;;;14.80;4.53;;;8.60;99.90;;;;;;5047791;28;20022;-63
2023/12/17 02:15:57;;;;;;;16.40;5.47;;;8.70;99.90;;;;;;5047959;28;20103;-63
2023/12/17 02:18:23;;;;;;;11.38;4.40;;;8.60;99.90;;;;;;5046607;28;20528;-61
2023/12/17 02:20:48;;;;;;;11.23;4.13;;;8.60;99.90;;;;;;5050116;28;20043;-60
2023/12/17 02:23:14;;;;;;;10.95;4.55;;;8.60;99.90;;;;;;5043872;28;20037;-63
2023/12/17 02:25:39;;;;;;;14.02;5.00;;;8.60;99.90;;;;;;5056610;28;20041;-63
2023/12/17 02:28:05;;;;;;;14.05;4.13;;;8.70;99.90;;;;;;5047661;28;20028;-63
2023/12/17 02:30:30;;;;;;;15.32;4.72;;;8.70;99.90;;;;;;5055979;28;20415;-60
2023/12/17 02:32:56;;;;;;;12.45;5.07;;;8.70;99.90;;;;;;5049876;28;20077;-62
2023/12/17 02:35:21;;;;;;;11.38;5.15;;;8.70;99.90;;;;;;5057671;28;20124;-63
2023/12/17 02:37:50;;;;;;;19.52;4.53;;;8.70;99.90;;;;;;5053599;28;20029;-61
2023/12/17 02:40:16;;;;;;;13.15;4.63;;;8.70;99.90;;;;;;5053999;28;20107;-64
2023/12/17 02:42:42;;;;;;;14.27;4.68;;;8.60;99.90;;;;;;5046681;28;20171;-61
2023/12/17 02:45:09;;;;;;;22.17;5.15;;;8.60;99.90;;;;;;5048559;28;20033;-63
2023/12/17 02:47:35;;;;;;;16.35;5.57;;;8.70;99.90;;;;;;5048593;28;20107;-61
2023/12/17 02:50:00;;;;;;;18.25;5.55;;;8.70;99.90;;;;;;5056760;28;20155;-61
2023/12/17 02:52:26;;;;;;;21.08;6.72;;;8.70;99.90;;;;;;5041547;28;20040;-61
2023/12/17 02:54:52;;;;;;;16.90;6.97;;;8.70;99.90;;;;;;5062145;28;20020;-62
2023/12/17 02:57:17;;;;;;;26.42;7.53;;;8.60;99.90;;;;;;5046429;28;20106;-62
2023/12/17 02:59:43;;;;;;;14.85;6.63;;;8.70;99.90;;;;;;5060177;28;20028;-60
2023/12/17 03:02:08;;;;;;;28.17;7.88;;;8.70;99.90;;;;;;5054657;28;20087;-61
2023/12/17 03:04:34;;;;;;;16.52;6.15;;;8.70;99.90;;;;;;5065545;28;20028;-61
2023/12/17 03:06:59;;;;;;;25.85;7.13;;;8.60;99.90;;;;;;5044402;28;20029;-62
2023/12/17 03:09:25;;;;;;;20.48;7.65;;;8.60;99.90;;;;;;5057511;28;20032;-63
2023/12/17 03:11:50;;;;;;;22.17;7.10;;;8.60;99.90;;;;;;5046467;28;20025;-60
2023/12/17 03:14:16;;;;;;;22.70;7.00;;;8.50;99.90;;;;;;5060208;28;20028;-62
2023/12/17 03:16:42;;;;;;;18.55;6.88;;;8.50;99.90;;;;;;5042088;28;20031;-62
2023/12/17 03:19:08;;;;;;;25.73;7.53;;;8.50;99.90;;;;;;5047524;28;20035;-62
2023/12/17 03:21:33;;;;;;;18.33;7.63;;;8.50;99.90;;;;;;5051844;28;20119;-61
2023/12/17 03:24:00;;;;;;;21.45;6.53;;;8.40;99.90;;;;;;5059205;28;20033;-63
2023/12/17 03:26:25;;;;;;;23.55;7.10;;;8.40;99.90;;;;;;5050991;28;20035;-62
2023/12/17 03:28:51;;;;;;;17.10;6.75;;;8.40;99.90;;;;;;5053982;28;20441;-61
2023/12/17 03:31:16;;;;;;;18.80;6.50;;;8.50;99.90;;;;;;5049131;28;20475;-60
2023/12/17 03:33:43;;;;;;;19.75;7.28;;;8.50;99.90;;;;;;5048537;28;20029;-61
2023/12/17 03:36:13;;;;;;;24.88;7.03;;;8.40;99.90;;;;;;5045509;28;20055;-61
2023/12/17 03:38:38;;;;;;;22.13;7.60;;;8.50;99.90;;;;;;5048347;28;20033;-65
2023/12/17 03:41:04;;;;;;;20.20;7.10;;;8.40;99.90;;;;;;5054127;28;20444;-61
2023/12/17 03:43:30;;;;;;;20.55;6.43;;;8.40;99.90;;;;;;5056589;28;20033;-60
2023/12/17 03:45:55;;;;;;;17.23;6.75;;;8.40;99.90;;;;;;5051366;28;20082;-61
2023/12/17 03:48:20;;;;;;;18.30;6.20;;;8.40;99.90;;;;;;5049022;28;20021;-60
2023/12/17 03:50:46;;;;;;;24.77;6.63;;;8.40;99.90;;;;;;5047234;28;20514;-61
2023/12/17 03:53:11;;;;;;;16.92;5.82;;;8.40;99.90;;;;;;5050321;28;20025;-63
2023/12/17 03:55:37;;;;;;;21.20;7.03;;;8.40;99.90;;;;;;5042823;28;20033;-60
2023/12/17 03:58:03;;;;;;;16.80;6.65;;;8.30;99.90;;;;;;5047629;28;20201;-61
2023/12/17 04:00:29;;;;;;;21.67;6.47;;;8.40;99.90;;;;;;5050207;28;20056;-65
2023/12/17 04:02:55;;;;;;;14.60;5.88;;;8.40;99.90;;;;;;5053851;28;20037;-63
2023/12/17 04:05:21;;;;;;;19.52;6.20;;;8.40;99.90;;;;;;5057253;28;20036;-63
2023/12/17 04:07:46;;;;;;;8.88;5.60;;;8.30;99.90;;;;;;5044676;28;20029;-60
2023/12/17 04:10:12;;;;;;;14.35;5.25;;;8.30;99.90;;;;;;5048513;28;20390;-61
2023/12/17 04:12:38;;;;;;;10.05;5.45;;;8.40;99.90;;;;;;5043077;28;20033;-62
2023/12/17 04:15:04;;;;;;;14.35;5.22;;;8.40;99.90;;;;;;5054149;28;20012;-62
2023/12/17 04:17:30;;;;;;;14.63;4.97;;;8.50;99.90;;;;;;5041916;28;20048;-63
2023/12/17 04:19:56;;;;;;;11.07;4.68;;;8.40;99.90;;;;;;5064383;28;20017;-63
2023/12/17 04:22:21;;;;;;;8.77;3.95;;;8.50;99.90;;;;;;5043597;28;20018;-62
2023/12/17 04:24:47;;;;;;;12.90;4.70;;;8.40;99.90;;;;;;5051397;28;20025;-62
2023/12/17 04:27:12;;;;;;;11.90;5.20;;;8.50;99.90;;;;;;5044953;28;20025;-63
2023/12/17 04:29:38;;;;;;;15.77;5.05;;;8.50;99.90;;;;;;5061772;28;20038;-61
2023/12/17 04:32:04;;;;;;;10.32;4.97;;;8.40;99.90;;;;;;5048477;28;20075;-63
2023/12/17 04:34:29;;;;;;;15.80;4.45;;;8.40;99.90;;;;;;5057917;28;20070;-64
2023/12/17 04:36:59;;;;;;;9.90;4.63;;;8.40;99.90;;;;;;5046767;28;20341;-62
2023/12/17 04:39:28;;;;;;;9.27;4.30;;;8.40;99.90;;;;;;5053468;28;20078;-63
2023/12/17 04:41:54;;;;;;;11.73;4.43;;;8.40;99.90;;;;;;5042760;28;20494;-63
2023/12/17 04:44:19;;;;;;;11.95;4.05;;;8.50;99.90;;;;;;5055793;28;20033;-62
2023/12/17 04:46:45;;;;;;;10.98;4.63;;;8.50;99.90;;;;;;5043713;28;20036;-62
2023/12/17 04:49:10;;;;;;;8.57;4.30;;;8.40;99.90;;;;;;5058590;28;20021;-63
2023/12/17 04:51:36;;;;;;;8.98;4.25;;;8.40;99.90;;;;;;5044759;28;20108;-63
2023/12/17 04:54:01;;;;;;;7.03;3.67;;;8.40;99.90;;;;;;5051126;28;20111;-62
2023/12/17 04:56:27;;;;;;;11.68;5.32;;;8.40;99.90;;;;;;5047098;28;20029;-62
2023/12/17 04:58:53;;;;;;;11.15;4.80;;;8.40;99.90;;;;;;5054778;28;20076;-63
2023/12/17 05:01:18;;;;;;;9.98;4.75;;;8.40;99.90;;;;;;5052073;28;20207;-62
2023/12/17 05:03:44;;;;;;;12.57;5.80;;;8.40;99.90;;;;;;5051923;28;20403;-62
2023/12/17 05:06:10;;;;;;;19.95;6.65;;;8.40;99.90;;;;;;5042552;28;20494;-64
2023/12/17 05:08:35;;;;;;;10.38;5.40;;;8.40;99.90;;;;;;5041873;28;20036;-61
2023/12/17 05:11:01;;;;;;;17.67;5.93;;;8.40;99.90;;;;;;5050097;28;20419;-58
2023/12/17 05:13:26;;;;;;;17.40;6.43;;;8.30;99.90;;;;;;5051077;28;20476;-62
2023/12/17 05:15:52;;;;;;;19.13;6.65;;;8.30;99.90;;;;;;5044067;28;20033;-64
2023/12/17 05:18:17;;;;;;;15.70;6.22;;;8.30;99.90;;;;;;5045119;28;20032;-63
2023/12/17 05:20:45;;;;;;;19.58;6.25;;;8.30;99.90;;;;;;5039749;28;20495;-60
2023/12/17 05:23:12;;;;;;;15.13;5.95;;;8.40;99.90;;;;;;5051489;28;20033;-62
2023/12/17 05:25:41;;;;;;;17.38;6.88;;;8.40;99.90;;;;;;5040174;28;20500;-62
2023/12/17 05:28:09;;;;;;;15.40;6.00;;;8.30;99.90;;;;;;5045396;28;20033;-61
2023/12/17 05:30:37;;;;;;;21.00;6.88;;;8.30;99.90;;;;;;5050786;28;20033;-63
2023/12/17 05:33:03;;;;;;;19.95;6.47;;;8.30;99.90;;;;;;5043431;28;20068;-61
2023/12/17 05:35:28;;;;;;;13.25;5.75;;;8.30;99.90;;;;;;5046467;28;20075;-62
2023/12/17 05:37:54;;;;;;;12.77;5.93;;;8.30;99.90;;;;;;5044438;28;20021;-63
2023/12/17 05:40:19;;;;;;;12.90;6.22;;;8.20;99.90;;;;;;5044658;28;20025;-64
2023/12/17 05:42:45;;;;;;;22.83;7.07;;;8.20;99.90;;;;;;5043007;28;20024;-63
2023/12/17 05:45:10;;;;;;;18.92;6.82;;;8.20;99.90;;;;;;5044315;28;20017;-61
2023/12/17 05:47:36;;;;;;;12.85;6.63;;;8.30;99.90;;;;;;5044140;28;20040;-61
2023/12/17 05:50:03;;;;;;;18.23;6.97;;;8.30;99.90;;;;;;5048164;28;20033;-62
2023/12/17 05:52:29;;;;;;;13.43;6.13;;;8.30;99.90;;;;;;5040332;28;20159;-62
2023/12/17 05:54:54;;;;;;;17.35;6.90;;;8.20;99.90;;;;;;5044414;28;20104;-63
2023/12/17 05:57:20;;;;;;;14.00;5.95;;;8.30;99.90;;;;;;5044161;28;20021;-64
2023/12/17 05:59:45;;;;;;;10.52;6.22;;;8.30;99.90;;;;;;5048977;28;20025;-60
2023/12/17 06:02:11;;;;;;;21.25;6.78;;;8.30;99.90;;;;;;5049209;28;20025;-63
2023/12/17 06:04:36;;;;;;;13.70;6.35;;;8.20;99.90;;;;;;5047502;28;20037;-63
2023/12/17 06:07:02;;;;;;;13.65;5.50;;;8.30;99.90;;;;;;5043610;28;20534;-63
2023/12/17 06:09:27;;;;;;;16.77;6.28;;;8.20;99.90;;;;;;5049828;28;20036;-61
2023/12/17 06:11:53;;;;;;;18.33;6.18;;;8.20;99.90;;;;;;5041085;28;20104;-64
2023/12/17 06:14:19;;;;;;;11.65;6.53;;;8.20;99.90;;;;;;5052077;28;20039;-62
2023/12/17 06:16:45;;;;;;;23.58;6.68;;;8.20;99.90;;;;;;5037948;28;20033;-63
2023/12/17 06:19:11;;;;;;;18.40;6.90;;;8.20;99.90;;;;;;5051679;28;20031;-63
2023/12/17 06:21:37;;;;;;;15.88;7.40;;;8.20;99.90;;;;;;5048186;28;20020;-62
2023/12/17 06:24:03;;;;;;;10.05;6.45;;;8.20;99.90;;;;;;5050999;28;20079;-63
2023/12/17 06:26:29;;;;;;;13.10;6.68;;;8.20;99.90;;;;;;5042382;28;20027;-61
2023/12/17 06:28:55;;;;;;;14.77;6.68;;;8.20;99.90;;;;;;5046958;28;20033;-63
2023/12/17 06:31:21;;;;;;;14.40;5.65;;;8.20;99.90;;;;;;5046587;28;20402;-62
2023/12/17 06:33:47;;;;;;;14.00;6.57;;;8.20;99.90;;;;;;5043615;28;20151;-60
2023/12/17 06:36:13;;;;;;;10.68;5.70;;;8.10;99.90;;;;;;5044671;28;20035;-62
2023/12/17 06:38:42;;;;;;;12.75;5.57;;;8.10;99.90;;;;;;5043398;28;20029;-63
2023/12/17 06:41:08;;;;;;;14.43;5.57;;;8.10;99.90;;;;;;5045777;28;20064;-63
2023/12/17 06:43:33;;;;;;;12.52;6.15;;;8.20;99.90;;;;;;5041453;28;20021;-61
2023/12/17 06:45:59;;;;;;;13.73;6.55;;;8.20;99.90;;;;;;5044148;28;20036;-62
2023/12/17 06:48:24;;;;;;;9.90;5.45;;;8.20;99.90;;;;;;5046434;28;20052;-63
2023/12/17 06:50:50;;;;;;;12.75;5.85;;;8.20;99.90;;;;;;5045266;28;20080;-62
2023/12/17 06:53:17;;;;;;;12.70;6.60;;;8.30;99.90;;;;;;5046989;28;20058;-63
2023/12/17 06:55:43;;;;;;;11.98;6.28;;;8.20;99.90;;;;;;5047196;28;20017;-64
2023/12/17 06:58:09;;;;;;;17.98;7.15;;;8.20;99.90;;;;;;5043319;28;20024;-64
2023/12/17 07:00:34;;;;;;;13.40;6.68;;;8.20;99.90;;;;;;5045499;28;20104;-61
2023/12/17 07:03:01;;;;;;;14.48;6.30;;;8.20;99.90;;;;;;5047843;28;20517;-63
2023/12/17 07:05:27;;;;;;;14.85;6.13;;;8.20;99.90;;;;;;5046158;28;20535;-63
2023/12/17 07:07:53;;;;;;;14.57;6.50;;;8.20;99.90;;;;;;5048425;28;20108;-62
2023/12/17 07:10:18;;;;;;;11.77;5.95;;;8.20;99.90;;;;;;5057271;28;20085;-62
2023/12/17 07:12:44;;;;;;;13.73;7.38;;;8.20;99.90;;;;;;5047873;28;20025;-62
2023/12/17 07:15:10;;;;;;;14.68;6.10;;;8.20;99.90;;;;;;5056929;28;20114;-64
2023/12/17 07:17:35;;;;;;;19.30;6.45;;;8.30;99.90;;;;;;5048966;28;20028;-62
2023/12/17 07:20:01;;;;;;;17.27;6.82;;;8.30;99.90;;;;;;5054008;28;20030;-63
2023/12/17 07:22:26;;;;;;;11.93;6.05;;;8.30;99.90;;;;;;5047030;28;20026;-62
2023/12/17 07:24:52;;;;;;;14.27;6.05;;;8.20;99.90;;;;;;5052088;28;20029;-63
2023/12/17 07:27:17;;;;;;;12.00;6.25;;;8.30;99.90;;;;;;5049682;28;20403;-61
2023/12/17 07:29:43;;;;;;;11.90;5.93;;;8.30;99.90;;;;;;5061395;28;20086;-64
2023/12/17 07:32:08;;;;;;;14.18;5.78;;;8.30;99.90;;;;;;5051321;28;20082;-62
2023/12/17 07:34:34;;;;;;;13.45;6.63;;;8.40;99.90;;;;;;5050485;28;20135;-61
2023/12/17 07:37:00;;;;;;;12.48;6.22;;;8.40;99.90;;;;;;5046141;28;20066;-63
2023/12/17 07:39:26;;;;;;;12.50;6.57;;;8.40;99.90;;;;;;5050873;28;20035;-63
2023/12/17 07:41:51;;;;;;;12.25;6.85;;;8.30;99.90;;;;;;5050444;28;20056;-63
2023/12/17 07:44:17;;;;;;;16.13;6.95;;;8.30;99.90;;;;;;5050834;28;20033;-64
2023/12/17 07:46:42;;;;;;;13.90;7.00;;;8.30;99.90;;;;;;5052508;28;20108;-63
2023/12/17 07:49:08;;;;;;;15.52;7.78;;;8.30;99.90;;;;;;5049534;28;20158;-64
2023/12/17 07:51:33;;;;;;;14.20;6.80;;;8.30;99.90;;;;;;5048577;28;20078;-62
2023/12/17 07:53:59;;;;;;;14.10;7.03;;;8.30;99.90;;;;;;5051537;28;20017;-63
2023/12/17 07:56:24;;;;;;;12.65;6.72;;;8.20;99.90;;;;;;5044831;28;20628;-64
2023/12/17 07:58:50;;;;;;;14.05;6.22;;;8.20;99.90;;;;;;5048835;28;20029;-62
2023/12/17 08:01:16;;;;;;;12.82;6.72;;;8.20;99.90;;;;;;5052114;28;20037;-61
2023/12/17 08:03:41;;;;;;;10.68;5.30;;;8.20;99.90;;;;;;5055748;28;20391;-63
2023/12/17 08:06:07;;;;;;;9.68;5.28;;;8.20;99.90;;;;;;5054079;28;20081;-62
2023/12/17 08:08:33;;;;;;;11.48;5.95;;;8.20;99.90;;;;;;5051454;28;20041;-63
2023/12/17 08:10:58;;;;;;;9.23;5.05;;;8.30;99.90;;;;;;5050131;28;20038;-62
2023/12/17 08:13:24;;;;;;;10.15;6.07;;;8.30;99.90;;;;;;5050868;28;20035;-61
2023/12/17 08:15:49;;;;;;;10.82;5.10;;;8.20;99.90;;;;;;5054147;28;20033;-60
2023/12/17 08:18:15;;;;;;;16.05;5.82;;;8.30;99.90;;;;;;5053536;28;20028;-62
2023/12/17 08:20:40;;;;;;;9.23;5.25;;;8.20;99.90;;;;;;5049667;28;20112;-62
2023/12/17 08:23:06;;;;;;;13.82;6.00;;;8.20;99.90;;;;;;5052481;28;20099;-61
2023/12/17 08:25:38;;;;;;;10.02;5.70;;;8.20;99.90;;;;;;5057160;28;20071;-61
2023/12/17 08:28:04;;;;;;;11.18;5.00;;;8.30;99.90;;;;;;5053493;28;20048;-62
2023/12/17 08:30:29;;;;;;;10.43;5.45;;;8.30;99.90;;;;;;5050816;28;20191;-61
2023/12/17 08:32:55;;;;;;;11.02;5.20;;;8.30;99.90;;;;;;5052313;28;20543;-63
2023/12/17 08:35:20;;;;;;;10.00;5.13;;;8.30;99.90;;;;;;5051240;28;20082;-61
2023/12/17 08:37:46;;;;;;;10.20;5.20;;;8.30;99.90;;;;;;5046852;28;20024;-61
2023/12/17 08:40:12;;;;;;;11.45;5.57;;;8.40;99.90;;;;;;5052378;28;20028;-59
2023/12/17 08:42:37;;;;;;;8.82;5.10;;;8.40;99.90;;;;;;5046449;28;20484;-63
2023/12/17 08:45:03;;;;;;;12.32;5.97;;;8.40;99.90;;;;;;5053282;28;20653;-62
2023/12/17 08:47:29;;;;;;;9.65;5.93;;;8.30;99.90;;;;;;5045469;28;20035;-61
2023/12/17 08:49:56;;;;;;;10.55;5.55;;;8.30;99.90;;;;;;5050528;28;20102;-61
2023/12/17 08:52:21;;;;;;;11.77;5.10;;;8.30;99.90;;;;;;5052254;28;20020;-62
2023/12/17 08:54:47;;;;;;;11.43;6.45;;;8.30;99.90;;;;;;5054218;28;20037;-62
2023/12/17 08:57:12;;;;;;;10.43;5.60;;;8.30;99.90;;;;;;5049890;28;20434;-62
2023/12/17 08:59:42;;;;;;;11.50;6.32;;;8.40;99.90;;;;;;5055840;28;20099;-62
2023/12/17 09:02:08;;;;;;;11.65;5.53;;;8.40;99.90;;;;;;5046533;28;20108;-63
2023/12/17 09:04:33;;;;;;;10.13;5.90;;;8.40;99.90;;;;;;5060708;28;20131;-63
2023/12/17 09:06:59;;;;;;;8.70;5.18;;;8.40;99.90;;;;;;5067427;28;20437;-62
2023/12/17 09:09:24;;;;;;;12.75;5.90;;;8.30;99.90;;;;;;5052608;28;20049;-60
2023/12/17 09:11:50;;;;;;;11.57;5.82;;;8.30;99.90;;;;;;5046939;28;20495;-61
2023/12/17 09:14:15;;;;;;;8.77;4.97;;;8.30;99.90;;;;;;5054709;28;20022;-62
2023/12/17 09:16:41;;;;;;;8.98;4.90;;;8.40;99.90;;;;;;5047608;28;20029;-60
2023/12/17 09:19:07;;;;;;;11.30;5.38;;;8.40;99.90;;;;;;5049375;28;20056;-60
2023/12/17 09:21:32;;;;;;;7.65;4.38;;;8.50;99.90;;;;;;5050692;28;20495;-62
2023/12/17 09:23:58;;;;;;;9.95;4.20;;;8.50;99.90;;;;;;5054145;28;20151;-61
2023/12/17 09:26:23;;;;;;;9.07;4.25;;;8.60;99.90;;;;;;5046672;28;20024;-61
2023/12/17 09:28:49;;;;;;;7.35;3.75;;;8.60;99.90;;;;;;5053297;28;20042;-61
2023/12/17 09:31:14;;;;;;;6.30;3.45;;;8.60;99.90;;;;;;5048391;28;20033;-62
2023/12/17 09:33:40;;;;;;;7.57;4.63;;;8.70;99.90;;;;;;5054234;28;20029;-61
2023/12/17 09:36:09;;;;;;;7.15;4.20;;;8.70;99.90;;;;;;5052127;28;20052;-61
2023/12/17 09:38:35;;;;;;;8.07;4.22;;;8.70;99.90;;;;;;5046546;28;20580;-61
2023/12/17 09:41:03;;;;;;;6.88;3.90;;;8.60;99.90;;;;;;5049404;28;20032;-63
2023/12/17 09:43:29;;;;;;;8.07;4.15;;;8.60;99.90;;;;;;5052015;28;20028;-62
2023/12/17 09:45:55;;;;;;;6.28;3.80;;;8.60;99.90;;;;;;5048257;28;20033;-61
2023/12/17 09:48:20;;;;;;;5.00;3.38;;;8.50;99.90;;;;;;5050143;28;20021;-62
2023/12/17 09:50:46;;;;;;;6.13;4.03;;;8.60;99.90;;;;;;5044890;28;20032;-62
2023/12/17 09:53:12;;;;;;;7.50;3.38;;;8.60;99.90;;;;;;5053406;28;20029;-62
2023/12/17 09:55:38;;;;;;;6.97;4.22;;;8.60;99.90;;;;;;5047233;28;20029;-63
2023/12/17 09:58:07;;;;;;;7.90;4.00;;;8.70;99.90;;;;;;5052735;28;20035;-61
2023/12/17 10:00:33;;;;;;;8.13;4.72;;;8.70;99.90;;;;;;5055692;28;20567;-63
2023/12/17 10:03:05;;;;;;;5.90;3.50;;;8.80;99.90;;;;;;5051907;28;20047;-63
2023/12/17 10:05:31;;;;;;;5.93;3.50;;;8.90;99.90;;;;;;5045666;28;20451;-63
2023/12/17 10:07:57;;;;;;;4.97;3.33;;;8.90;99.90;;;;;;5049864;28;20029;-61
2023/12/17 10:10:23;;;;;;;9.60;5.53;;;8.60;99.90;;;;;;5047714;28;20031;-62
2023/12/17 10:12:49;;;;;;;6.35;3.67;;;8.60;99.90;;;;;;5047519;28;20103;-62
2023/12/17 10:15:15;;;;;;;10.15;4.13;;;8.60;99.90;;;;;;5048696;28;20390;-62
2023/12/17 10:17:41;;;;;;;7.32;4.45;;;8.60;99.90;;;;;;5048858;28;20017;-63
2023/12/17 10:20:07;;;;;;;8.73;4.38;;;8.60;99.90;;;;;;5052420;28;20083;-58
2023/12/17 10:22:33;;;;;;;8.50;5.00;;;8.90;99.90;;;;;;5051991;28;20041;-63
2023/12/17 10:24:58;;;;;;;9.48;5.00;;;9.00;99.90;;;;;;5049675;28;20088;-61
2023/12/17 10:27:24;;;;;;;6.78;4.70;;;9.10;99.90;;;;;;5049786;28;20024;-62
2023/12/17 10:29:51;;;;;;;7.47;4.72;;;9.10;99.90;;;;;;5048113;28;20491;-63
2023/12/17 10:32:28;;;;;;;6.30;4.28;;;9.10;99.90;;;;;;5053082;28;20087;-61
2023/12/17 10:34:54;;;;;;;7.03;4.63;;;9.00;99.90;;;;;;5053046;28;20063;-63
2023/12/17 10:37:20;;;;;;;7.97;3.70;;;9.10;99.90;;;;;;5045963;28;20065;-64
2023/12/17 10:39:51;;;;;;;6.55;3.65;;;9.20;99.90;;;;;;5047136;28;20444;-62
2023/12/17 10:42:17;;;;;;;6.30;4.18;;;9.10;99.90;;;;;;5048821;28;20029;-64
2023/12/17 10:44:48;;;;;;;9.00;3.92;;;9.20;99.90;;;;;;5050922;28;20025;-64
2023/12/17 10:47:33;;;;;;;5.13;3.33;;;9.10;99.90;;;;;;5048364;28;20029;-63
2023/12/17 10:49:58;;;;;;;;;;;9.20;99.90;;;;;;5051653;28;20029;-63
2023/12/17 10:52:24;;;;;;;4.82;3.25;;;9.20;99.90;;;;;;5045742;28;20437;-64
2023/12/17 10:54:50;;;;;;;6.60;3.35;;;9.30;99.90;;;;;;5049921;28;20069;-64
2023/12/17 10:57:20;;;;;;;5.57;3.53;;;9.40;99.90;;;;;;5052434;28;20070;-63
2023/12/17 10:59:48;;;;;;;5.20;2.97;;;9.40;99.90;;;;;;5052416;28;20349;-64
2023/12/17 11:02:17;;;;;;;5.65;3.67;;;9.20;99.90;;;;;;5047917;28;20109;-63
2023/12/17 11:04:45;;;;;;;6.15;3.40;;;9.40;99.90;;;;;;5048649;28;20032;-62
2023/12/17 11:07:19;;;;;;;6.93;3.53;;;9.50;99.90;;;;;;5048553;28;20028;-62
2023/12/17 11:09:45;;;;;;;6.10;3.90;;;9.60;99.90;;;;;;5046674;28;20387;-60
2023/12/17 11:12:16;;;;;;;4.70;3.67;;;9.80;99.90;;;;;;5052988;28;20043;-61
2023/12/17 11:14:44;;;;;;;5.70;3.50;;;9.80;99.90;;;;;;5047233;28;20025;-63
2023/12/17 11:17:15;;;;;;;6.50;3.97;;;9.90;99.90;;;;;;5052040;28;20759;-61
2023/12/17 11:19:59;;;;;;;5.22;3.78;;;9.90;99.90;;;;;;5050325;28;20029;-61
2023/12/17 11:22:25;;;;;;;5.53;3.83;;;10.00;99.90;;;;;;5045756;28;20036;-61
2023/12/17 11:24:54;;;;;;;4.50;3.20;;;10.10;99.90;;;;;;5055250;28;20033;-61
2023/12/17 11:27:22;;;;;;;7.25;4.43;;;9.80;99.90;;;;;;5058162;28;20041;-63
2023/12/17 11:29:48;;;;;;;6.32;4.18;;;9.90;99.90;;;;;;5048488;28;20025;-59
2023/12/17 11:32:20;;;;;;;6.63;3.55;;;9.90;99.90;;;;;;5047254;28;20386;-61
2023/12/17 11:34:48;;;;;;;9.18;4.32;;;10.10;99.90;;;;;;5048696;28;20045;-63
2023/12/17 11:37:22;;;;;;;7.13;3.85;;;10.20;99.90;;;;;;5051172;28;20021;-62
2023/12/17 11:39:49;;;;;;;4.77;3.43;;;10.20;99.90;;;;;;5055109;28;20514;-62
2023/12/17 11:42:16;;;;;;;5.57;3.78;;;10.30;99.90;;;;;;5051401;28;20390;-63
2023/12/17 11:44:48;;;;;;;14.90;4.32;;;10.00;99.90;;;;;;5051716;28;20449;-61
2023/12/17 11:47:14;;;;;;;8.23;5.55;;;10.10;99.90;;;;;;5049741;28;20050;-57
2023/12/17 11:49:40;;;;;;;8.57;4.75;;;10.20;99.90;;;;;;5045225;28;20082;-63
2023/12/17 11:52:13;;;;;;;9.57;4.90;;;10.10;99.90;;;;;;5042828;28;20504;-62
2023/12/17 11:54:41;;;;;;;14.38;4.95;;;10.20;99.90;;;;;;5046007;28;20557;-64
2023/12/17 11:57:21;;;;;;;7.40;4.28;;;10.20;99.90;;;;;;5047399;28;20074;-64
2023/12/17 11:59:47;;;;;;;7.75;4.65;;;10.20;99.90;;;;;;5050134;28;20029;-62
2023/12/17 12:02:17;;;;;;;8.15;5.80;;;10.30;99.90;;;;;;5048551;28;20814;-64
2023/12/17 12:04:44;;;;;;;10.90;4.40;;;10.40;99.90;;;;;;5049950;28;20534;-64
2023/12/17 12:07:11;;;;;;;7.35;4.32;;;10.40;99.90;;;;;;5048390;28;20156;-62
2023/12/17 12:09:37;;;;;;;5.47;4.20;;;10.20;99.90;;;;;;5052198;28;20526;-62
2023/12/17 12:12:13;;;;;;;6.97;5.13;;;10.40;99.90;;;;;;5045186;28;20044;-60
2023/12/17 12:14:39;;;;;;;6.93;5.15;;;10.40;99.90;;;;;;5048760;28;20667;-63
2023/12/17 12:17:05;;;;;;;9.23;4.88;;;10.40;99.90;;;;;;5051877;28;20047;-61
2023/12/17 12:19:30;;;;;;;7.63;4.65;;;10.50;99.90;;;;;;5052280;28;20028;-61
2023/12/17 12:21:56;;;;;;;6.07;4.10;;;10.70;99.90;;;;;;5046170;28;20032;-65
2023/12/17 12:24:21;;;;;;;6.95;4.85;;;10.60;99.90;;;;;;5047524;28;20032;-63
2023/12/17 12:26:47;;;;;;;7.72;4.75;;;10.90;99.90;;;;;;5050202;28;20033;-62
2023/12/17 12:29:13;;;;;;;6.10;4.38;;;10.80;99.90;;;;;;5045096;28;20046;-63
2023/12/17 12:31:38;;;;;;;7.22;4.18;;;10.80;99.90;;;;;;5047593;28;20043;-63
2023/12/17 12:34:05;;;;;;;14.20;4.10;;;10.60;99.90;;;;;;5055804;28;20127;-63
2023/12/17 12:36:47;;;;;;;5.82;3.78;;;11.00;99.90;;;;;;5044477;28;20024;-63
2023/12/17 12:39:14;;;;;;;5.22;3.70;;;11.10;99.90;;;;;;5045305;28;20032;-64
2023/12/17 12:41:46;;;;;;;6.82;3.95;;;11.40;99.90;;;;;;5049805;28;20040;-63
2023/12/17 12:44:13;;;;;;;4.60;3.58;;;11.20;99.90;;;;;;5046352;28;20021;-64